createdAt,value
2022-08-17T00:00:51.766Z,6.10
2022-08-17T00:03:29.238Z,5.80
2022-08-17T00:06:02.702Z,4.67
2022-08-17T00:08:39.969Z,7.57
2022-08-17T00:11:10.572Z,6.83
2022-08-17T00:13:51.873Z,5.47
2022-08-17T00:16:55.530Z,9.80
2022-08-17T00:19:31.232Z,6.03
2022-08-17T00:22:35.181Z,4.93
2022-08-17T00:24:55.893Z,6.40
2022-08-17T00:27:24.182Z,6.27
2022-08-17T00:30:00.913Z,6.03
2022-08-17T00:33:11.986Z,6.97
2022-08-17T00:35:29.842Z,5.60
2022-08-17T00:38:05.012Z,5.83
2022-08-17T00:40:40.828Z,5.07
2022-08-17T00:43:22.925Z,6.93
2022-08-17T00:45:52.711Z,5.87
2022-08-17T00:48:29.447Z,4.73
2022-08-17T00:51:10.277Z,5.77
2022-08-17T00:53:48.916Z,4.90
2022-08-17T00:56:25.160Z,4.63
2022-08-17T00:59:02.038Z,4.93
2022-08-17T01:01:33.731Z,4.93
2022-08-17T01:04:10.266Z,5.13
2022-08-17T01:06:39.394Z,5.93
2022-08-17T01:09:15.274Z,5.10
2022-08-17T01:11:44.402Z,5.70
2022-08-17T01:14:25.915Z,4.87
2022-08-17T01:16:57.073Z,5.10
2022-08-17T01:19:34.914Z,6.10
2022-08-17T01:22:08.970Z,8.43
2022-08-17T01:24:47.019Z,6.97
2022-08-17T01:27:18.541Z,7.10
2022-08-17T01:29:57.964Z,6.87
2022-08-17T01:32:26.770Z,7.17
2022-08-17T01:35:01.934Z,6.60
2022-08-17T01:37:35.599Z,6.20
2022-08-17T01:40:16.953Z,5.43
2022-08-17T01:42:49.934Z,7.40
2022-08-17T01:45:29.947Z,5.63
2022-08-17T01:47:58.298Z,5.40
2022-08-17T01:50:35.966Z,6.43
2022-08-17T01:53:07.427Z,5.87
2022-08-17T01:55:48.965Z,6.53
2022-08-17T01:58:17.898Z,6.30
2022-08-17T02:01:00.159Z,5.73
2022-08-17T02:03:30.312Z,5.80
2022-08-17T02:06:05.247Z,6.80
2022-08-17T02:08:37.142Z,5.83
2022-08-17T02:11:17.976Z,5.73
2022-08-17T02:14:01.029Z,6.53
2022-08-17T02:16:46.912Z,8.40
2022-08-17T02:19:18.172Z,6.03
2022-08-17T02:21:55.014Z,5.40
2022-08-17T02:25:00.983Z,8.83
2022-08-17T02:27:27.013Z,6.50
2022-08-17T02:29:55.534Z,6.20
2022-08-17T02:32:33.009Z,5.83
2022-08-17T02:35:01.997Z,5.37
2022-08-17T02:37:38.094Z,5.13
2022-08-17T02:40:07.967Z,6.17
2022-08-17T02:42:47.127Z,6.30
2022-08-17T02:45:17.418Z,6.17
2022-08-17T02:47:52.044Z,6.53
2022-08-17T02:50:22.652Z,6.80
2022-08-17T02:53:02.599Z,8.03
2022-08-17T02:55:33.059Z,7.80
2022-08-17T02:58:10.116Z,8.77
2022-08-17T03:00:42.657Z,12.10
2022-08-17T03:03:20.015Z,9.83
2022-08-17T03:05:53.146Z,8.20
2022-08-17T03:08:30.386Z,7.70
2022-08-17T03:10:58.773Z,7.10
2022-08-17T03:13:35.024Z,7.63
2022-08-17T03:16:10.471Z,7.40
2022-08-17T03:18:45.070Z,9.10
2022-08-17T03:21:13.580Z,7.37
2022-08-17T03:23:49.056Z,9.23
2022-08-17T03:26:22.690Z,8.33
2022-08-17T03:28:58.992Z,9.40
2022-08-17T03:31:27.258Z,8.43
2022-08-17T03:34:03.066Z,8.73
2022-08-17T03:36:31.356Z,8.57
2022-08-17T03:39:11.406Z,9.70
2022-08-17T03:41:40.698Z,8.90
2022-08-17T03:44:17.055Z,8.10
2022-08-17T03:47:02.706Z,8.17
2022-08-17T03:49:55.207Z,8.87
2022-08-17T03:52:40.781Z,8.30
2022-08-17T03:55:39.182Z,8.30
2022-08-17T03:58:07.490Z,7.90
2022-08-17T04:00:46.084Z,7.63
2022-08-17T04:03:15.285Z,8.07
2022-08-17T04:05:51.218Z,6.97
2022-08-17T04:08:19.414Z,9.03
2022-08-17T04:10:54.118Z,8.20
2022-08-17T04:13:24.239Z,10.23
2022-08-17T04:16:08.106Z,7.50
2022-08-17T04:18:43.310Z,7.80
2022-08-17T04:21:18.090Z,8.33
2022-08-17T04:23:46.430Z,7.87
2022-08-17T04:26:52.780Z,8.23
2022-08-17T04:29:10.515Z,7.33
2022-08-17T04:31:46.072Z,9.00
2022-08-17T04:34:14.388Z,8.80
2022-08-17T04:36:55.129Z,9.87
2022-08-17T04:39:25.092Z,7.73
2022-08-17T04:42:14.061Z,7.77
2022-08-17T04:44:42.202Z,7.73
2022-08-17T04:47:18.140Z,7.30
2022-08-17T04:49:46.568Z,7.03
2022-08-17T04:52:29.744Z,6.50
2022-08-17T04:55:11.684Z,7.30
2022-08-17T04:57:46.140Z,7.63
2022-08-17T05:00:14.975Z,6.70
2022-08-17T05:02:55.402Z,6.23
2022-08-17T05:05:26.732Z,6.63
2022-08-17T05:08:03.162Z,6.33
2022-08-17T05:10:35.910Z,6.33
2022-08-17T05:13:15.181Z,7.27
2022-08-17T05:15:55.306Z,6.67
2022-08-17T05:18:32.268Z,6.90
2022-08-17T05:21:00.826Z,6.63
2022-08-17T05:23:42.844Z,6.97
2022-08-17T05:26:25.503Z,7.80
2022-08-17T05:29:03.205Z,6.80
2022-08-17T05:31:31.809Z,7.23
2022-08-17T05:34:08.291Z,7.80
2022-08-17T05:36:44.157Z,6.87
2022-08-17T05:39:21.304Z,7.27
2022-08-17T05:41:49.605Z,6.87
2022-08-17T05:44:25.533Z,7.43
2022-08-17T05:46:54.878Z,7.43
2022-08-17T05:49:35.350Z,7.50
2022-08-17T05:52:24.031Z,7.33
2022-08-17T05:55:13.272Z,7.67
2022-08-17T05:57:55.959Z,7.40
2022-08-17T06:00:34.294Z,7.40
2022-08-17T06:03:43.236Z,8.07
2022-08-17T06:06:25.206Z,7.50
2022-08-17T06:09:25.755Z,7.50
2022-08-17T06:12:04.294Z,7.43
2022-08-17T06:14:57.183Z,7.57
2022-08-17T06:17:33.652Z,7.80
2022-08-17T06:20:13.227Z,9.07
2022-08-17T06:22:48.559Z,10.40
2022-08-17T06:25:26.209Z,8.37
2022-08-17T06:28:09.451Z,7.63
2022-08-17T06:30:59.809Z,8.17
2022-08-17T06:33:35.362Z,7.67
2022-08-17T06:36:21.354Z,8.40
2022-08-17T06:39:00.857Z,7.77
2022-08-17T06:41:49.370Z,7.50
2022-08-17T06:44:43.421Z,9.87
2022-08-17T06:47:28.701Z,7.50
2022-08-17T06:50:07.886Z,9.23
2022-08-17T06:52:48.433Z,8.67
2022-08-17T06:55:21.914Z,8.30
2022-08-17T06:58:01.265Z,7.50
2022-08-17T07:00:40.786Z,8.97
2022-08-17T07:03:23.414Z,8.47
2022-08-17T07:05:57.171Z,8.90
2022-08-17T07:08:40.229Z,8.07
2022-08-17T07:11:14.152Z,8.33
2022-08-17T07:13:56.321Z,9.10
2022-08-17T07:16:39.695Z,8.17
2022-08-17T07:19:15.215Z,8.57
2022-08-17T07:21:55.104Z,8.30
2022-08-17T07:24:42.422Z,8.27
2022-08-17T07:27:15.968Z,8.40
2022-08-17T07:29:56.391Z,8.40
2022-08-17T07:32:28.095Z,8.70
2022-08-17T07:35:22.286Z,8.53
2022-08-17T07:38:03.817Z,9.07
2022-08-17T07:40:42.514Z,8.33
2022-08-17T07:43:23.590Z,9.37
2022-08-17T07:46:39.321Z,8.80
2022-08-17T07:49:25.832Z,8.87
2022-08-17T07:52:24.000Z,9.07
2022-08-17T07:54:56.665Z,9.27
2022-08-17T07:57:40.423Z,9.10
2022-08-17T08:00:32.442Z,11.03
2022-08-17T08:03:21.337Z,9.37
2022-08-17T08:05:56.163Z,9.60
2022-08-17T08:08:35.332Z,9.20
2022-08-17T08:11:08.555Z,9.73
2022-08-17T08:13:49.345Z,8.93
2022-08-17T08:16:41.584Z,9.80
2022-08-17T08:19:21.146Z,10.50
2022-08-17T08:21:56.454Z,10.10
2022-08-17T08:24:48.312Z,10.83
2022-08-17T08:27:27.922Z,10.50
2022-08-17T08:30:11.472Z,11.07
2022-08-17T08:33:04.278Z,10.93
2022-08-17T08:35:41.884Z,13.23
2022-08-17T08:38:20.517Z,12.37
2022-08-17T08:41:16.409Z,13.23
2022-08-17T08:43:56.022Z,13.83
2022-08-17T08:46:38.314Z,14.40
2022-08-17T08:50:03.544Z,13.00
2022-08-17T08:53:01.381Z,14.77
2022-08-17T08:55:45.104Z,15.20
2022-08-17T08:58:31.679Z,16.07
2022-08-17T09:01:17.639Z,16.70
2022-08-17T09:04:24.015Z,16.47
2022-08-17T09:07:04.483Z,17.07
2022-08-17T09:09:57.329Z,15.60
2022-08-17T09:12:35.632Z,15.33
2022-08-17T09:15:18.519Z,16.30
2022-08-17T09:18:59.347Z,18.43
2022-08-17T09:21:03.446Z,15.30
2022-08-17T09:23:34.892Z,14.63
2022-08-17T09:26:21.357Z,15.43
2022-08-17T09:28:52.887Z,17.50
2022-08-17T09:31:33.500Z,12.63
2022-08-17T09:34:06.986Z,9.37
2022-08-17T09:36:52.419Z,7.83
2022-08-17T09:39:27.861Z,9.20
2022-08-17T09:42:13.416Z,10.07
2022-08-17T09:44:45.610Z,7.30
2022-08-17T09:47:38.537Z,9.10
2022-08-17T09:50:13.660Z,8.97
2022-08-17T09:52:50.454Z,8.40
2022-08-17T09:55:18.879Z,8.70
2022-08-17T09:58:04.764Z,6.77
2022-08-17T10:00:37.117Z,6.00
2022-08-17T10:03:36.672Z,6.47
2022-08-17T10:06:13.555Z,6.50
2022-08-17T10:08:56.591Z,6.13
2022-08-17T10:11:48.335Z,7.20
2022-08-17T10:14:37.457Z,7.20
2022-08-17T10:17:29.661Z,7.07
2022-08-17T10:20:11.562Z,7.43
2022-08-17T10:23:02.089Z,7.40
2022-08-17T10:25:55.730Z,7.13
2022-08-17T10:28:30.635Z,8.07
2022-08-17T10:31:35.742Z,7.90
2022-08-17T10:34:36.201Z,8.10
2022-08-17T10:37:36.466Z,8.33
2022-08-17T10:40:34.190Z,9.43
2022-08-17T10:43:23.416Z,8.17
2022-08-17T10:46:21.534Z,8.07
2022-08-17T10:49:29.616Z,8.73
2022-08-17T10:52:00.115Z,8.07
2022-08-17T10:54:58.390Z,8.20
2022-08-17T10:57:41.946Z,8.40
2022-08-17T11:00:27.404Z,7.80
2022-08-17T11:02:57.547Z,8.50
2022-08-17T11:06:11.496Z,8.93
2022-08-17T11:09:19.530Z,9.60
2022-08-17T11:12:09.861Z,9.57
2022-08-17T11:14:58.596Z,9.37
2022-08-17T11:17:52.152Z,10.07
2022-08-17T11:21:01.569Z,10.00
2022-08-17T11:24:03.085Z,9.90
2022-08-17T11:26:41.752Z,10.70
2022-08-17T11:29:25.372Z,10.37
2022-08-17T11:32:11.540Z,9.87
2022-08-17T11:34:41.892Z,9.37
2022-08-17T11:37:36.624Z,10.07
2022-08-17T11:40:37.609Z,10.10
2022-08-17T11:43:39.507Z,9.90
2022-08-17T11:46:51.014Z,10.57
2022-08-17T11:50:05.872Z,10.10
2022-08-17T11:52:40.386Z,10.53
2022-08-17T11:55:34.972Z,10.60
2022-08-17T11:58:07.921Z,11.23
2022-08-17T12:01:06.144Z,10.47
2022-08-17T12:03:55.853Z,11.13
2022-08-17T12:06:51.547Z,11.07
2022-08-17T12:09:25.112Z,10.47
2022-08-17T12:12:12.841Z,11.20
2022-08-17T12:15:10.639Z,10.40
2022-08-17T12:17:54.287Z,11.27
2022-08-17T12:20:28.000Z,10.33
2022-08-17T12:23:12.564Z,10.70
2022-08-17T12:25:46.158Z,11.53
2022-08-17T12:28:29.742Z,11.30
2022-08-17T12:31:03.580Z,9.70
2022-08-17T12:33:38.640Z,9.57
2022-08-17T12:36:09.794Z,9.07
2022-08-17T12:38:48.772Z,8.97
2022-08-17T12:41:31.417Z,9.47
2022-08-17T12:44:09.737Z,8.60
2022-08-17T12:46:51.852Z,9.00
2022-08-17T12:49:34.593Z,8.70
2022-08-17T12:52:08.804Z,9.13
2022-08-17T12:55:00.556Z,9.47
2022-08-17T12:57:33.964Z,9.80
2022-08-17T13:00:16.652Z,10.60
2022-08-17T13:02:50.483Z,9.97
2022-08-17T13:05:31.727Z,8.83
2022-08-17T13:08:01.490Z,9.50
2022-08-17T13:10:38.636Z,9.17
2022-08-17T13:13:24.057Z,8.67
2022-08-17T13:16:07.639Z,8.20
2022-08-17T13:18:49.238Z,8.90
2022-08-17T13:21:34.935Z,10.23
2022-08-17T13:24:08.197Z,10.77
2022-08-17T13:26:46.778Z,10.90
2022-08-17T13:29:27.499Z,10.60
2022-08-17T13:32:20.847Z,10.10
2022-08-17T13:35:12.502Z,10.70
2022-08-17T13:37:48.779Z,11.60
2022-08-17T13:40:43.169Z,11.30
2022-08-17T13:43:18.601Z,10.97
2022-08-17T13:45:53.325Z,11.33
2022-08-17T13:48:32.747Z,9.93
2022-08-17T13:51:23.143Z,9.63
2022-08-17T13:54:35.775Z,9.47
2022-08-17T13:57:06.189Z,9.60
2022-08-17T13:59:55.915Z,9.03
2022-08-17T14:02:26.020Z,9.20
2022-08-17T14:05:06.375Z,9.80
2022-08-17T14:07:39.915Z,8.83
2022-08-17T14:10:19.815Z,9.53
2022-08-17T14:12:49.562Z,9.10
2022-08-17T14:15:54.868Z,9.23
2022-08-17T14:18:50.526Z,9.70
2022-08-17T14:21:17.697Z,9.47
2022-08-17T14:23:54.328Z,9.07
2022-08-17T14:26:29.710Z,9.53
2022-08-17T14:28:57.986Z,10.30
2022-08-17T14:31:37.601Z,10.83
2022-08-17T14:34:06.655Z,10.60
2022-08-17T14:36:41.719Z,11.60
2022-08-17T14:39:19.394Z,10.70
2022-08-17T14:41:54.824Z,11.37
2022-08-17T14:44:23.679Z,10.63
2022-08-17T14:46:58.709Z,10.77
2022-08-17T14:49:28.103Z,10.97
2022-08-17T14:52:03.077Z,11.97
2022-08-17T14:54:34.057Z,11.67
2022-08-17T14:57:26.063Z,10.70
2022-08-17T14:59:59.274Z,11.10
2022-08-17T15:02:36.093Z,11.03
2022-08-17T15:05:06.618Z,11.20
2022-08-17T15:07:41.718Z,11.63
2022-08-17T15:10:12.743Z,10.70
2022-08-17T15:12:47.730Z,10.40
2022-08-17T15:15:18.475Z,10.83
2022-08-17T15:18:00.215Z,10.83
2022-08-17T15:20:30.401Z,10.73
2022-08-17T15:23:05.727Z,10.27
2022-08-17T15:25:35.262Z,10.83
2022-08-17T15:28:09.846Z,10.50
2022-08-17T15:30:38.361Z,10.43
2022-08-17T15:33:12.853Z,10.60
2022-08-17T15:35:44.959Z,10.97
2022-08-17T15:38:20.753Z,10.13
2022-08-17T15:40:52.597Z,10.50
2022-08-17T15:43:30.074Z,10.37
2022-08-17T15:46:00.939Z,9.87
2022-08-17T15:48:48.121Z,10.20
2022-08-17T15:51:19.074Z,10.93
2022-08-17T15:53:57.101Z,10.17
2022-08-17T15:56:28.982Z,9.90
2022-08-17T15:59:03.876Z,11.27
2022-08-17T16:02:24.775Z,10.37
2022-08-17T16:04:30.639Z,9.63
2022-08-17T16:07:06.942Z,9.83
2022-08-17T16:09:35.470Z,9.77
2022-08-17T16:12:21.761Z,9.97
2022-08-17T16:14:52.154Z,9.70
2022-08-17T16:17:40.775Z,10.17
2022-08-17T16:20:20.097Z,10.67
2022-08-17T16:22:56.799Z,10.13
2022-08-17T16:25:51.913Z,10.30
2022-08-17T16:28:30.908Z,10.70
2022-08-17T16:31:08.226Z,10.50
2022-08-17T16:34:01.048Z,11.00
2022-08-17T16:36:34.565Z,11.33
2022-08-17T16:39:09.793Z,11.47
2022-08-17T16:41:47.314Z,10.90
2022-08-17T16:44:25.876Z,11.47
2022-08-17T16:46:54.587Z,11.40
2022-08-17T16:49:37.381Z,11.77
2022-08-17T16:52:10.672Z,11.70
2022-08-17T16:54:50.022Z,10.53
2022-08-17T16:57:19.967Z,11.37
2022-08-17T16:59:57.854Z,11.77
2022-08-17T17:02:28.671Z,11.40
2022-08-17T17:05:10.835Z,10.60
2022-08-17T17:07:57.546Z,10.63
2022-08-17T17:10:38.861Z,10.20
2022-08-17T17:13:12.600Z,10.20
2022-08-17T17:15:58.005Z,9.20
2022-08-17T17:18:41.670Z,9.33
2022-08-17T17:21:21.884Z,9.80
2022-08-17T17:23:56.617Z,9.03
2022-08-17T17:26:45.047Z,9.33
2022-08-17T17:29:28.926Z,8.73
2022-08-17T17:32:28.861Z,8.63
2022-08-17T17:35:05.096Z,9.00
2022-08-17T17:37:43.027Z,9.27
2022-08-17T17:40:19.088Z,8.87
2022-08-17T17:42:53.891Z,9.13
2022-08-17T17:45:25.973Z,8.37
2022-08-17T17:48:02.894Z,8.43
2022-08-17T17:50:37.995Z,9.37
2022-08-17T17:53:17.983Z,9.30
2022-08-17T17:56:01.314Z,9.30
2022-08-17T17:58:46.919Z,9.67
2022-08-17T18:01:26.738Z,11.33
2022-08-17T18:04:20.740Z,13.30
2022-08-17T18:06:59.397Z,13.83
2022-08-17T18:09:53.727Z,13.27
2022-08-17T18:12:37.456Z,12.93
2022-08-17T18:15:27.915Z,15.70
2022-08-17T18:18:39.047Z,14.57
2022-08-17T18:21:22.944Z,15.63
2022-08-17T18:23:55.782Z,14.50
2022-08-17T18:26:46.921Z,14.20
2022-08-17T18:29:35.935Z,15.20
2022-08-17T18:32:38.926Z,14.77
2022-08-17T18:35:37.264Z,15.00
2022-08-17T18:38:28.640Z,14.53
2022-08-17T18:41:10.023Z,13.63
2022-08-17T18:43:52.823Z,14.07
2022-08-17T18:46:35.985Z,14.57
2022-08-17T18:49:10.961Z,14.93
2022-08-17T18:51:49.053Z,16.23
2022-08-17T18:54:22.046Z,17.23
2022-08-17T18:56:59.943Z,16.40
2022-08-17T18:59:36.472Z,17.83
2022-08-17T19:02:43.868Z,15.77
2022-08-17T19:05:28.706Z,16.57
2022-08-17T19:08:24.309Z,16.27
2022-08-17T19:13:41.963Z,16.20
2022-08-17T19:16:25.477Z,15.90
2022-08-17T19:19:04.970Z,16.13
2022-08-17T19:21:37.522Z,14.80
2022-08-17T19:24:16.977Z,13.63
2022-08-17T19:26:50.965Z,12.83
2022-08-17T19:29:37.160Z,12.33
2022-08-17T19:32:09.758Z,12.50
2022-08-17T19:34:50.908Z,12.03
2022-08-17T19:37:31.423Z,11.17
2022-08-17T19:40:29.474Z,11.10
2022-08-17T19:43:14.784Z,10.40
2022-08-17T19:46:13.993Z,10.67
2022-08-17T19:48:52.030Z,9.73
2022-08-17T19:51:37.032Z,9.93
2022-08-17T19:54:14.370Z,10.10
2022-08-17T19:56:55.014Z,10.30
2022-08-17T19:59:36.386Z,10.40
2022-08-17T20:02:30.340Z,10.80
2022-08-17T20:05:01.645Z,10.07
2022-08-17T20:07:47.127Z,10.87
2022-08-17T20:10:24.117Z,10.73
2022-08-17T20:13:08.049Z,10.80
2022-08-17T20:15:39.820Z,10.27
2022-08-17T20:18:23.062Z,10.17
2022-08-17T20:20:58.225Z,10.47
2022-08-17T20:23:53.025Z,9.97
2022-08-17T20:26:27.394Z,10.73
2022-08-17T20:29:37.776Z,11.07
2022-08-17T20:32:27.638Z,11.47
2022-08-17T20:35:18.051Z,10.90
2022-08-17T20:37:55.026Z,11.03
2022-08-17T20:40:46.198Z,11.20
2022-08-17T20:43:48.212Z,12.10
2022-08-17T20:46:49.060Z,12.30
2022-08-17T20:49:34.051Z,13.07
2022-08-17T20:52:09.183Z,12.67
2022-08-17T20:54:57.096Z,13.07
2022-08-17T20:57:49.633Z,13.70
2022-08-17T21:00:51.051Z,12.50
2022-08-17T21:03:50.555Z,12.77
2022-08-17T21:06:30.063Z,12.97
2022-08-17T21:09:30.013Z,13.77
2022-08-17T21:12:12.070Z,14.40
2022-08-17T21:15:05.300Z,15.13
2022-08-17T21:17:56.178Z,14.77
2022-08-17T21:20:32.539Z,16.30
2022-08-17T21:23:38.083Z,16.20
2022-08-17T21:26:19.148Z,17.43
2022-08-17T21:29:32.339Z,16.90
2022-08-17T21:32:21.062Z,17.50
2022-08-17T21:35:44.106Z,16.93
2022-08-17T21:38:15.326Z,15.90
2022-08-17T21:40:55.041Z,16.00
2022-08-17T21:43:32.169Z,14.60
2022-08-17T21:46:10.117Z,17.00
2022-08-17T21:48:45.605Z,16.47
2022-08-17T21:51:28.037Z,16.83
2022-08-17T21:53:59.926Z,16.63
2022-08-17T21:56:39.072Z,17.67
2022-08-17T21:59:26.327Z,18.40
2022-08-17T22:02:04.235Z,18.40
2022-08-17T22:04:34.968Z,19.80
2022-08-17T22:07:12.092Z,21.20
2022-08-17T22:09:44.049Z,18.20
2022-08-17T22:12:28.237Z,18.50
2022-08-17T22:15:24.465Z,18.60
2022-08-17T22:17:59.172Z,20.67
2022-08-17T22:20:27.670Z,20.50
2022-08-17T22:23:36.151Z,20.13
2022-08-17T22:26:09.516Z,21.17
2022-08-17T22:28:51.146Z,21.30
2022-08-17T22:31:23.379Z,21.23
2022-08-17T22:34:14.251Z,21.07
2022-08-17T22:36:44.024Z,22.57
2022-08-17T22:39:49.278Z,22.27
2022-08-17T22:42:18.413Z,22.57
2022-08-17T22:44:57.190Z,24.60
2022-08-17T22:47:41.071Z,24.40
2022-08-17T22:50:29.115Z,23.60
2022-08-17T22:53:17.382Z,21.00
2022-08-17T22:56:17.261Z,22.73
2022-08-17T22:59:09.801Z,23.53
2022-08-17T23:01:46.289Z,22.73
2022-08-17T23:04:33.059Z,23.87
2022-08-17T23:07:08.156Z,25.07
2022-08-17T23:09:36.895Z,23.17
2022-08-17T23:12:16.192Z,22.33
2022-08-17T23:14:45.704Z,22.77
2022-08-17T23:17:21.307Z,26.43
2022-08-17T23:19:50.916Z,26.93
2022-08-17T23:22:25.169Z,25.93
2022-08-17T23:24:53.515Z,25.70
2022-08-17T23:27:29.179Z,26.57
2022-08-17T23:29:57.309Z,27.43
2022-08-17T23:32:32.314Z,27.83
2022-08-17T23:35:01.934Z,27.20
2022-08-17T23:37:37.580Z,28.17
2022-08-17T23:40:06.958Z,29.20
2022-08-17T23:42:43.811Z,25.57
2022-08-17T23:45:15.519Z,25.40
2022-08-17T23:47:50.734Z,27.90
2022-08-17T23:50:21.327Z,28.67
2022-08-17T23:52:57.179Z,24.33
2022-08-17T23:55:25.401Z,24.40
2022-08-17T23:58:00.240Z,28.47
